Time;durP1;ratioP1;P1;durP2;ratioP2;P2;SDS_P1;SDS_P2;PMS_P1;PMS_P2;Temp;Humidity;BMP_temperature;BMP_pressure;BME280_temperature;BME280_humidity;BME280_pressure;Samples;Min_cycle;Max_cycle;Signal;HPM_P1;HPM_P2
2022/08/01 00:00:38;;;;;;;0.03;0.03;;;18.20;94.30;;;;;;5030266;28;20052;-72
2022/08/01 00:03:03;;;;;;;0.00;0.00;;;18.30;94.30;;;;;;5031184;28;20073;-72
2022/08/01 00:05:29;;;;;;;0.00;0.00;;;18.20;94.40;;;;;;5031157;28;20099;-72
2022/08/01 00:07:55;;;;;;;0.00;0.00;;;18.20;94.40;;;;;;5030994;28;20053;-72
2022/08/01 00:10:20;;;;;;;0.00;0.00;;;18.20;94.30;;;;;;5031216;28;20051;-72
2022/08/01 00:12:46;;;;;;;0.00;0.00;;;18.30;94.30;;;;;;5031406;28;20083;-72
2022/08/01 00:15:15;;;;;;;0.00;0.00;;;18.30;94.20;;;;;;5031100;28;20110;-72
2022/08/01 00:17:41;;;;;;;0.00;0.00;;;18.30;94.20;;;;;;5030597;28;20548;-72
2022/08/01 00:20:10;;;;;;;0.00;0.00;;;18.30;94.20;;;;;;5031306;28;20045;-72
2022/08/01 00:22:35;;;;;;;0.00;0.00;;;18.30;94.10;;;;;;5031351;28;20449;-72
2022/08/01 00:25:03;;;;;;;0.00;0.00;;;18.30;94.10;;;;;;5030839;28;20050;-72
2022/08/01 00:27:28;;;;;;;0.00;0.00;;;18.30;94.00;;;;;;5030571;28;20077;-73
2022/08/01 00:29:54;;;;;;;0.20;0.20;;;18.30;93.90;;;;;;5031175;28;20077;-72
2022/08/01 00:32:19;;;;;;;0.00;0.00;;;18.20;93.90;;;;;;5031144;28;20053;-72
2022/08/01 00:34:45;;;;;;;0.00;0.00;;;18.20;93.80;;;;;;5030320;28;20048;-72
2022/08/01 00:37:11;;;;;;;0.00;0.00;;;18.30;93.80;;;;;;5031017;28;20046;-72
2022/08/01 00:39:36;;;;;;;0.00;0.00;;;18.20;93.70;;;;;;5022073;28;20044;-72
2022/08/01 00:42:07;;;;;;;0.00;0.00;;;18.20;93.60;;;;;;5025563;28;20679;-72
2022/08/01 00:44:33;;;;;;;0.00;0.00;;;18.20;93.50;;;;;;5027277;28;20104;-72
2022/08/01 00:46:59;;;;;;;0.00;0.00;;;18.20;93.40;;;;;;5021931;28;20233;-72
2022/08/01 00:49:25;;;;;;;0.00;0.00;;;18.10;93.30;;;;;;5019476;28;20545;-72
2022/08/01 00:51:50;;;;;;;0.00;0.00;;;18.10;93.40;;;;;;5021169;28;20046;-72
2022/08/01 00:54:16;;;;;;;0.00;0.00;;;18.10;93.30;;;;;;5019184;28;20046;-73
2022/08/01 00:56:42;;;;;;;0.00;0.00;;;18.10;93.20;;;;;;5003049;28;20045;-72
2022/08/01 00:59:08;;;;;;;0.10;0.10;;;18.10;93.20;;;;;;5018967;28;20057;-72
2022/08/01 01:01:34;;;;;;;0.00;0.00;;;18.10;93.20;;;;;;5019145;28;20045;-72
2022/08/01 01:04:00;;;;;;;0.10;0.10;;;18.10;93.20;;;;;;5017382;28;20040;-72
2022/08/01 01:06:52;;;;;;;0.00;0.00;;;18.10;93.20;;;;;;5020365;28;20494;-72
2022/08/01 01:09:32;;;;;;;0.10;0.10;;;18.10;93.10;;;;;;5022818;28;20647;-72
2022/08/01 01:12:00;;;;;;;0.00;0.00;;;18.10;93.10;;;;;;5021508;28;20030;-72
2022/08/01 01:14:36;;;;;;;0.00;0.00;;;18.10;93.00;;;;;;5017011;28;20507;-72
2022/08/01 01:17:07;;;;;;;0.00;0.00;;;18.10;93.00;;;;;;5022846;28;20051;-72
2022/08/01 01:19:38;;;;;;;0.00;0.00;;;18.10;92.90;;;;;;5018359;28;20049;-72
2022/08/01 01:22:34;;;;;;;0.00;0.00;;;18.10;92.90;;;;;;5020759;28;20080;-72
2022/08/01 01:25:24;;;;;;;0.00;0.00;;;18.10;92.80;;;;;;5018551;28;20720;-72
2022/08/01 01:28:08;;;;;;;0.00;0.00;;;18.10;92.80;;;;;;5021537;28;20045;-71
2022/08/01 01:30:34;;;;;;;0.00;0.00;;;18.10;92.80;;;;;;5023093;28;20484;-72
2022/08/01 01:33:04;;;;;;;0.00;0.00;;;18.10;92.70;;;;;;5021977;28;20050;-72
2022/08/01 01:35:35;;;;;;;0.00;0.00;;;18.10;92.60;;;;;;5020457;28;20065;-72
2022/08/01 01:38:08;;;;;;;0.00;0.00;;;18.10;92.60;;;;;;5022970;28;20042;-72
2022/08/01 01:40:35;;;;;;;0.00;0.00;;;18.00;92.50;;;;;;5016895;28;20045;-72
2022/08/01 01:43:01;;;;;;;0.00;0.00;;;18.00;92.50;;;;;;5020388;28;20071;-72
2022/08/01 01:45:28;;;;;;;0.00;0.00;;;18.00;92.50;;;;;;5017829;28;20140;-72
2022/08/01 01:47:54;;;;;;;0.00;0.00;;;18.00;92.50;;;;;;5021257;28;20042;-72
2022/08/01 01:50:23;;;;;;;0.00;0.00;;;18.00;92.40;;;;;;4997674;28;20878;-72
2022/08/01 01:52:50;;;;;;;0.00;0.00;;;18.00;92.40;;;;;;5016786;28;20500;-72
2022/08/01 01:55:18;;;;;;;0.00;0.00;;;18.00;92.30;;;;;;5020176;28;20057;-72
2022/08/01 01:57:44;;;;;;;0.00;0.00;;;18.00;92.30;;;;;;5022225;28;20116;-72
2022/08/01 02:00:12;;;;;;;0.00;0.00;;;18.00;92.20;;;;;;5020141;28;20091;-72
2022/08/01 02:02:38;;;;;;;0.00;0.00;;;18.00;92.20;;;;;;5017157;28;20045;-72
2022/08/01 02:05:07;;;;;;;0.00;0.00;;;18.00;92.20;;;;;;5019419;28;20111;-72
2022/08/01 02:07:34;;;;;;;0.00;0.00;;;18.00;92.20;;;;;;5022347;28;20091;-72
2022/08/01 02:10:02;;;;;;;0.00;0.00;;;18.00;92.10;;;;;;5016872;28;20041;-72
2022/08/01 02:12:32;;;;;;;0.00;0.00;;;17.90;92.10;;;;;;5018608;28;20040;-72
2022/08/01 02:14:58;;;;;;;0.00;0.00;;;17.90;92.00;;;;;;5016251;28;20049;-72
2022/08/01 02:17:25;;;;;;;0.00;0.00;;;18.00;92.00;;;;;;5013779;28;20052;-72
2022/08/01 02:19:51;;;;;;;0.00;0.00;;;17.90;92.00;;;;;;5016076;28;20076;-72
2022/08/01 02:22:51;;;;;;;0.10;0.10;;;17.90;92.00;;;;;;5017383;28;20495;-72
2022/08/01 02:25:19;;;;;;;0.00;0.00;;;17.90;91.90;;;;;;5010130;28;20054;-72
2022/08/01 02:28:01;;;;;;;0.00;0.00;;;17.90;91.90;;;;;;5028649;28;20410;-72
2022/08/01 02:30:33;;;;;;;0.00;0.00;;;17.90;91.90;;;;;;5026869;28;20038;-72
2022/08/01 02:33:11;;;;;;;0.00;0.00;;;17.90;91.80;;;;;;5028332;28;20492;-72
2022/08/01 02:35:40;;;;;;;0.00;0.00;;;17.90;91.80;;;;;;5028893;28;20045;-72
2022/08/01 02:38:11;;;;;;;0.35;0.35;;;17.80;91.80;;;;;;5028483;28;20156;-72
2022/08/01 02:40:40;;;;;;;0.00;0.00;;;17.90;91.80;;;;;;5029000;28;20053;-72
2022/08/01 02:43:08;;;;;;;0.00;0.00;;;17.90;91.80;;;;;;5028714;28;20045;-72
2022/08/01 02:45:37;;;;;;;0.00;0.00;;;17.90;91.80;;;;;;5028106;28;20057;-72
2022/08/01 02:48:11;;;;;;;0.00;0.00;;;17.90;91.70;;;;;;5031891;28;20069;-72
2022/08/01 02:50:39;;;;;;;0.00;0.00;;;17.90;91.70;;;;;;5032380;28;20095;-72
2022/08/01 02:53:06;;;;;;;0.00;0.00;;;17.80;91.70;;;;;;5032832;28;20045;-72
2022/08/01 02:55:32;;;;;;;0.00;0.00;;;17.90;91.70;;;;;;5032890;28;20506;-72
2022/08/01 02:58:00;;;;;;;0.52;0.52;;;17.80;91.70;;;;;;5031807;28;20387;-72
2022/08/01 03:00:27;;;;;;;0.00;0.00;;;17.80;91.60;;;;;;5032317;28;20053;-72
2022/08/01 03:02:54;;;;;;;0.00;0.00;;;17.80;91.60;;;;;;5031235;28;20044;-72
2022/08/01 03:05:21;;;;;;;0.00;0.00;;;17.80;91.60;;;;;;5031802;28;20046;-72
2022/08/01 03:07:47;;;;;;;0.00;0.00;;;17.80;91.50;;;;;;5032193;28;20038;-72
2022/08/01 03:10:15;;;;;;;0.00;0.00;;;17.70;91.50;;;;;;5031295;28;20049;-72
2022/08/01 03:12:42;;;;;;;0.00;0.00;;;17.80;91.50;;;;;;5032033;28;20049;-72
2022/08/01 03:15:10;;;;;;;0.32;0.30;;;17.80;91.50;;;;;;5032535;28;20056;-73
2022/08/01 03:17:38;;;;;;;0.00;0.00;;;17.70;91.50;;;;;;5025545;28;20902;-72
2022/08/01 03:20:05;;;;;;;0.00;0.00;;;17.70;91.40;;;;;;5032184;28;20124;-72
2022/08/01 03:22:33;;;;;;;0.00;0.00;;;17.70;91.40;;;;;;5031884;28;20045;-72
2022/08/01 03:25:00;;;;;;;0.82;0.82;;;17.70;91.40;;;;;;5031482;28;20041;-72
2022/08/01 03:27:26;;;;;;;0.00;0.00;;;17.70;91.40;;;;;;5031723;28;20403;-72
2022/08/01 03:29:56;;;;;;;0.00;0.00;;;17.70;91.30;;;;;;5031916;28;20034;-72
2022/08/01 03:32:22;;;;;;;0.00;0.00;;;17.70;91.30;;;;;;5031133;28;20483;-72
2022/08/01 03:34:48;;;;;;;0.00;0.00;;;17.70;91.30;;;;;;5031849;28;20156;-72
2022/08/01 03:37:30;;;;;;;0.00;0.00;;;17.70;91.20;;;;;;5031697;28;20137;-72
2022/08/01 03:40:07;;;;;;;0.10;0.10;;;17.70;91.20;;;;;;5030416;28;20045;-72
2022/08/01 03:42:41;;;;;;;0.00;0.00;;;17.70;91.10;;;;;;5031435;28;20124;-72
2022/08/01 03:45:10;;;;;;;0.00;0.00;;;17.60;91.10;;;;;;5031090;28;20561;-72
2022/08/01 03:47:36;;;;;;;0.00;0.00;;;17.60;91.00;;;;;;5031611;28;20049;-73
2022/08/01 03:50:04;;;;;;;0.00;0.00;;;17.60;91.00;;;;;;5031097;28;20044;-72
2022/08/01 03:52:31;;;;;;;0.00;0.00;;;17.60;91.00;;;;;;5031647;28;20490;-73
2022/08/01 03:55:01;;;;;;;0.00;0.00;;;17.60;90.90;;;;;;5013433;28;20482;-72
2022/08/01 03:57:29;;;;;;;0.00;0.00;;;17.60;90.90;;;;;;5030895;28;20115;-72
2022/08/01 03:59:57;;;;;;;0.00;0.00;;;17.60;90.90;;;;;;5030707;28;20418;-72
2022/08/01 04:02:22;;;;;;;0.00;0.00;;;17.60;90.80;;;;;;5030690;28;20056;-72
2022/08/01 04:04:48;;;;;;;0.17;0.17;;;17.60;90.80;;;;;;5031083;28;20394;-72
2022/08/01 04:07:29;;;;;;;0.00;0.00;;;17.60;90.80;;;;;;5030265;28;20045;-72
2022/08/01 04:09:55;;;;;;;0.00;0.00;;;17.50;90.60;;;;;;5031184;28;20077;-72
2022/08/01 04:12:21;;;;;;;0.00;0.00;;;17.50;90.60;;;;;;5031360;28;20080;-72
2022/08/01 04:14:48;;;;;;;0.00;0.00;;;17.50;90.40;;;;;;5029433;28;20498;-72
2022/08/01 04:17:17;;;;;;;0.00;0.00;;;17.50;90.40;;;;;;5029506;28;20508;-72
2022/08/01 04:19:43;;;;;;;0.00;0.00;;;17.40;90.30;;;;;;5029597;28;20038;-72
2022/08/01 04:22:13;;;;;;;0.00;0.00;;;17.40;90.10;;;;;;5031177;28;20037;-72
2022/08/01 04:24:40;;;;;;;0.00;0.00;;;17.30;89.90;;;;;;5045690;28;20597;-72
2022/08/01 04:27:09;;;;;;;0.00;0.00;;;17.40;89.90;;;;;;5030793;28;20132;-72
2022/08/01 04:29:38;;;;;;;0.00;0.00;;;17.30;89.50;;;;;;5030333;28;20120;-72
2022/08/01 04:32:06;;;;;;;0.00;0.00;;;17.30;89.50;;;;;;5029235;28;20076;-72
2022/08/01 04:34:33;;;;;;;0.00;0.00;;;17.20;89.50;;;;;;5030469;28;20041;-73
2022/08/01 04:37:00;;;;;;;0.00;0.00;;;17.30;89.30;;;;;;5030529;28;20467;-72
2022/08/01 04:39:30;;;;;;;0.00;0.00;;;17.30;89.30;;;;;;5030436;28;20538;-72
2022/08/01 04:41:59;;;;;;;0.00;0.00;;;17.20;89.20;;;;;;5030554;28;20445;-72
2022/08/01 04:44:27;;;;;;;0.00;0.00;;;17.20;89.10;;;;;;5021566;28;20053;-72
2022/08/01 04:46:54;;;;;;;0.10;0.10;;;17.20;88.90;;;;;;5029355;28;20052;-72
2022/08/01 04:49:21;;;;;;;0.00;0.00;;;17.20;88.70;;;;;;5030096;28;20133;-73
2022/08/01 04:51:57;;;;;;;0.00;0.00;;;17.20;88.20;;;;;;5030479;28;20100;-72
2022/08/01 04:54:27;;;;;;;0.00;0.00;;;17.20;88.10;;;;;;5029903;28;20057;-72
2022/08/01 04:57:00;;;;;;;0.00;0.00;;;17.20;87.90;;;;;;5030734;28;20056;-72
2022/08/01 04:59:39;;;;;;;0.00;0.00;;;17.20;88.00;;;;;;5018428;28;20052;-72
2022/08/01 05:02:06;;;;;;;0.00;0.00;;;17.10;88.10;;;;;;5029237;28;20068;-72
2022/08/01 05:04:31;;;;;;;0.00;0.00;;;17.20;87.70;;;;;;5029648;28;20128;-72
2022/08/01 05:06:57;;;;;;;0.00;0.00;;;17.20;87.40;;;;;;5029958;28;20124;-72
2022/08/01 05:09:22;;;;;;;0.00;0.00;;;17.20;87.70;;;;;;5030075;28;20615;-71
2022/08/01 05:11:48;;;;;;;0.00;0.00;;;17.20;87.60;;;;;;5029714;28;20048;-72
2022/08/01 05:14:14;;;;;;;0.00;0.00;;;17.20;87.60;;;;;;5028734;28;20041;-73
2022/08/01 05:16:39;;;;;;;1.48;0.88;;;17.20;87.60;;;;;;5029956;28;20602;-73
2022/08/01 05:19:05;;;;;;;0.00;0.00;;;17.20;87.30;;;;;;5029051;28;20049;-73
2022/08/01 05:21:30;;;;;;;0.00;0.00;;;17.20;87.60;;;;;;5029794;28;20910;-73
2022/08/01 05:23:57;;;;;;;0.00;0.00;;;17.20;87.70;;;;;;5026868;28;20049;-73
2022/08/01 05:26:26;;;;;;;0.00;0.00;;;17.30;87.80;;;;;;5024534;28;20061;-72
2022/08/01 05:28:51;;;;;;;0.00;0.00;;;17.30;87.90;;;;;;5017357;28;20054;-72
2022/08/01 05:31:17;;;;;;;0.00;0.00;;;17.30;87.60;;;;;;5018736;28;20061;-72
2022/08/01 05:33:43;;;;;;;0.00;0.00;;;17.30;87.40;;;;;;5027336;28;20049;-72
2022/08/01 05:36:08;;;;;;;0.00;0.00;;;17.30;87.50;;;;;;5026985;28;20063;-72
2022/08/01 05:38:34;;;;;;;0.00;0.00;;;17.30;87.70;;;;;;5025456;28;20054;-72
2022/08/01 05:40:59;;;;;;;0.00;0.00;;;17.30;87.80;;;;;;5027070;28;20091;-71
2022/08/01 05:43:25;;;;;;;0.00;0.00;;;17.30;87.90;;;;;;5027850;28;20136;-71
2022/08/01 05:45:50;;;;;;;0.00;0.00;;;17.40;87.90;;;;;;5027596;28;20055;-72
2022/08/01 05:48:16;;;;;;;0.00;0.00;;;17.30;87.90;;;;;;5010465;28;20111;-71
2022/08/01 05:50:42;;;;;;;0.00;0.00;;;17.30;88.00;;;;;;5027823;28;20060;-71
2022/08/01 05:53:10;;;;;;;0.03;0.03;;;17.40;87.90;;;;;;5028623;28;20046;-71
2022/08/01 05:55:36;;;;;;;0.00;0.00;;;17.30;88.00;;;;;;5028120;28;20057;-72
2022/08/01 05:58:02;;;;;;;0.00;0.00;;;17.40;88.10;;;;;;5022596;28;20474;-71
2022/08/01 06:00:28;;;;;;;0.00;0.00;;;17.40;88.00;;;;;;5028211;28;20449;-71
2022/08/01 06:02:53;;;;;;;0.00;0.00;;;17.40;87.90;;;;;;5026541;28;20092;-71
2022/08/01 06:05:19;;;;;;;0.00;0.00;;;17.30;87.50;;;;;;5007187;28;20064;-71
2022/08/01 06:07:46;;;;;;;0.00;0.00;;;17.40;87.50;;;;;;5018731;28;20041;-71
2022/08/01 06:10:11;;;;;;;0.00;0.00;;;17.40;87.10;;;;;;5027545;28;20056;-72
2022/08/01 06:12:37;;;;;;;0.00;0.00;;;17.40;87.00;;;;;;5026566;28;20034;-72
2022/08/01 06:15:04;;;;;;;0.10;0.10;;;17.40;87.00;;;;;;5027577;28;20045;-72
2022/08/01 06:17:29;;;;;;;0.00;0.00;;;17.50;86.90;;;;;;5026933;28;20038;-72
2022/08/01 06:19:55;;;;;;;0.00;0.00;;;17.50;86.70;;;;;;5028343;28;20052;-71
2022/08/01 06:22:21;;;;;;;0.10;0.10;;;17.40;86.40;;;;;;5027100;28;20049;-71
2022/08/01 06:24:46;;;;;;;0.05;0.05;;;17.40;86.40;;;;;;5028538;28;20045;-72
2022/08/01 06:27:12;;;;;;;0.00;0.00;;;17.40;85.80;;;;;;5018176;28;20049;-73
2022/08/01 06:29:37;;;;;;;0.00;0.00;;;17.40;85.60;;;;;;5021445;28;20042;-73
2022/08/01 06:32:03;;;;;;;0.00;0.00;;;17.40;85.60;;;;;;5026707;28;20056;-71
2022/08/01 06:34:29;;;;;;;0.35;0.35;;;17.40;85.30;;;;;;5028056;28;20041;-71
2022/08/01 06:36:54;;;;;;;0.00;0.00;;;17.40;85.40;;;;;;5028433;28;20060;-72
2022/08/01 06:39:20;;;;;;;0.20;0.20;;;17.50;85.60;;;;;;5024142;28;20057;-71
2022/08/01 06:41:46;;;;;;;0.00;0.00;;;17.40;84.90;;;;;;5027387;28;20081;-71
2022/08/01 06:44:15;;;;;;;0.00;0.00;;;17.40;84.60;;;;;;5027505;28;20057;-72
2022/08/01 06:46:40;;;;;;;0.00;0.00;;;17.30;84.40;;;;;;5027954;28;20053;-67
2022/08/01 06:49:06;;;;;;;0.00;0.00;;;17.30;84.40;;;;;;5027716;28;20513;-68
2022/08/01 06:51:32;;;;;;;0.00;0.00;;;17.40;84.30;;;;;;5028367;28;20068;-72
2022/08/01 06:53:57;;;;;;;0.00;0.00;;;17.40;84.00;;;;;;5024809;28;20535;-73
2022/08/01 06:56:23;;;;;;;0.00;0.00;;;17.40;84.00;;;;;;5027754;28;20056;-73
2022/08/01 06:58:51;;;;;;;0.63;0.52;;;17.40;83.40;;;;;;5028065;28;20406;-73
2022/08/01 07:01:17;;;;;;;0.47;0.40;;;17.50;83.70;;;;;;5007710;28;20122;-73
2022/08/01 07:03:43;;;;;;;0.05;0.05;;;17.50;82.70;;;;;;5024480;28;20057;-70
2022/08/01 07:06:09;;;;;;;0.00;0.00;;;17.50;82.70;;;;;;5025146;28;20045;-71
2022/08/01 07:08:34;;;;;;;1.15;0.57;;;17.50;82.80;;;;;;5026260;28;20517;-71
2022/08/01 07:11:01;;;;;;;0.00;0.00;;;17.50;82.90;;;;;;5027699;28;20045;-70
2022/08/01 07:13:27;;;;;;;0.10;0.10;;;17.50;82.70;;;;;;5028391;28;20049;-71
2022/08/01 07:15:53;;;;;;;0.00;0.00;;;17.50;82.30;;;;;;5027822;28;20037;-71
2022/08/01 07:18:19;;;;;;;0.10;0.10;;;17.50;82.30;;;;;;5025792;28;20571;-71
2022/08/01 07:20:45;;;;;;;0.00;0.00;;;17.60;82.40;;;;;;5028003;28;20041;-71
2022/08/01 07:23:12;;;;;;;0.00;0.00;;;17.60;82.60;;;;;;5027876;28;20045;-71
2022/08/01 07:25:38;;;;;;;0.00;0.00;;;17.60;82.20;;;;;;5027455;28;20049;-71
2022/08/01 07:28:04;;;;;;;0.00;0.00;;;17.60;81.50;;;;;;5028369;28;20075;-71
2022/08/01 07:30:30;;;;;;;0.10;0.10;;;17.70;81.80;;;;;;5027871;28;20132;-70
2022/08/01 07:32:55;;;;;;;0.00;0.00;;;17.70;80.80;;;;;;5028369;28;20453;-71
2022/08/01 07:35:21;;;;;;;0.00;0.00;;;17.70;80.80;;;;;;5030482;28;20045;-71
2022/08/01 07:37:47;;;;;;;0.00;0.00;;;17.80;81.40;;;;;;5031678;28;20099;-71
2022/08/01 07:40:13;;;;;;;0.00;0.00;;;17.80;81.20;;;;;;5030528;28;20482;-71
2022/08/01 07:42:38;;;;;;;0.00;0.00;;;17.90;81.00;;;;;;5030532;28;20851;-71
2022/08/01 07:45:04;;;;;;;0.10;0.10;;;17.90;81.10;;;;;;5031602;28;20092;-71
2022/08/01 07:47:30;;;;;;;0.10;0.10;;;17.90;79.70;;;;;;5031473;28;20085;-72
2022/08/01 07:50:00;;;;;;;0.00;0.00;;;17.90;79.40;;;;;;5031357;28;20103;-72
2022/08/01 07:52:26;;;;;;;0.28;0.28;;;18.00;79.60;;;;;;5029963;28;20049;-72
2022/08/01 07:54:52;;;;;;;0.20;0.20;;;18.00;79.60;;;;;;5030395;28;20053;-71
2022/08/01 07:57:18;;;;;;;0.52;0.52;;;18.10;79.10;;;;;;5031336;28;20041;-71
2022/08/01 07:59:43;;;;;;;0.00;0.00;;;18.00;79.30;;;;;;5030483;28;20054;-71
2022/08/01 08:02:09;;;;;;;0.00;0.00;;;18.10;79.20;;;;;;5031141;28;20049;-71
2022/08/01 08:04:35;;;;;;;0.75;0.75;;;18.10;78.40;;;;;;5029994;28;20115;-72
2022/08/01 08:07:00;;;;;;;0.00;0.00;;;18.10;78.10;;;;;;5031375;28;20085;-72
2022/08/01 08:09:26;;;;;;;0.00;0.00;;;18.10;78.00;;;;;;5029295;28;20048;-71
2022/08/01 08:11:51;;;;;;;0.10;0.10;;;18.20;77.00;;;;;;5029714;28;20449;-71
2022/08/01 08:14:17;;;;;;;0.30;0.30;;;18.20;77.30;;;;;;5031188;28;20048;-71
2022/08/01 08:16:43;;;;;;;0.10;0.10;;;18.20;76.70;;;;;;5030997;28;20467;-71
2022/08/01 08:19:09;;;;;;;0.00;0.00;;;18.30;77.30;;;;;;5013157;28;20097;-71
2022/08/01 08:21:36;;;;;;;0.00;0.00;;;18.30;75.30;;;;;;5027374;28;20053;-71
2022/08/01 08:24:19;;;;;;;0.00;0.00;;;18.40;76.50;;;;;;5028314;28;20050;-71
2022/08/01 08:26:53;;;;;;;0.00;0.00;;;18.30;75.40;;;;;;5030034;28;20034;-71
2022/08/01 08:29:21;;;;;;;0.43;0.43;;;18.40;75.90;;;;;;5018397;28;20046;-71
2022/08/01 08:31:47;;;;;;;0.20;0.20;;;18.30;73.70;;;;;;5024018;28;20140;-73
2022/08/01 08:34:13;;;;;;;0.00;0.00;;;18.40;75.30;;;;;;5024959;28;20613;-73
2022/08/01 08:36:38;;;;;;;0.00;0.00;;;18.50;75.40;;;;;;5029701;28;20042;-73
2022/08/01 08:39:04;;;;;;;0.00;0.00;;;18.50;74.20;;;;;;5022017;28;20724;-72
2022/08/01 08:41:34;;;;;;;0.00;0.00;;;18.60;74.80;;;;;;5028616;28;20056;-73
2022/08/01 08:44:07;;;;;;;0.00;0.00;;;18.60;75.20;;;;;;5027826;28;20045;-72
2022/08/01 08:46:39;;;;;;;0.00;0.00;;;18.60;75.10;;;;;;5017643;28;20049;-72
2022/08/01 08:49:06;;;;;;;0.00;0.00;;;18.70;75.00;;;;;;5026599;28;20052;-73
2022/08/01 08:51:33;;;;;;;0.00;0.00;;;18.60;75.00;;;;;;5027323;28;20125;-72
2022/08/01 08:54:03;;;;;;;0.00;0.00;;;18.70;75.00;;;;;;5033597;28;20045;-72
2022/08/01 08:56:34;;;;;;;0.00;0.00;;;18.70;73.70;;;;;;5027995;28;20542;-73
2022/08/01 08:59:00;;;;;;;0.00;0.00;;;18.70;74.00;;;;;;5028942;28;20060;-72
2022/08/01 09:01:26;;;;;;;0.00;0.00;;;18.80;74.50;;;;;;5022368;28;20034;-72
2022/08/01 09:03:52;;;;;;;0.00;0.00;;;18.80;74.60;;;;;;5030022;28;20104;-72
2022/08/01 09:06:18;;;;;;;0.00;0.00;;;18.90;74.00;;;;;;5033413;28;20045;-72
2022/08/01 09:08:44;;;;;;;0.00;0.00;;;18.80;73.10;;;;;;5029537;28;20036;-72
2022/08/01 09:11:10;;;;;;;0.00;0.00;;;18.80;72.50;;;;;;5028787;28;20052;-72
2022/08/01 09:13:36;;;;;;;0.00;0.00;;;18.80;72.20;;;;;;5011987;28;20045;-72
2022/08/01 09:16:01;;;;;;;0.00;0.00;;;18.80;73.20;;;;;;5027674;28;20116;-72
2022/08/01 09:18:40;;;;;;;0.00;0.00;;;18.80;72.90;;;;;;5025791;28;20038;-71
2022/08/01 09:21:05;;;;;;;0.00;0.00;;;18.80;72.50;;;;;;5024019;28;20111;-71
2022/08/01 09:23:42;;;;;;;0.00;0.00;;;18.80;72.50;;;;;;5029372;28;20151;-72
2022/08/01 09:26:29;;;;;;;0.00;0.00;;;18.80;71.80;;;;;;5028775;28;20386;-72
2022/08/01 09:28:55;;;;;;;0.00;0.00;;;18.80;71.10;;;;;;5028777;28;20037;-71
2022/08/01 09:31:20;;;;;;;0.10;0.10;;;18.90;71.90;;;;;;5027389;28;20068;-71
2022/08/01 09:33:48;;;;;;;0.00;0.00;;;18.90;71.10;;;;;;5028692;28;20049;-72
2022/08/01 09:36:14;;;;;;;0.00;0.00;;;18.90;71.10;;;;;;5028055;28;20498;-72
2022/08/01 09:38:40;;;;;;;0.00;0.00;;;18.90;72.20;;;;;;5029167;28;20053;-72
2022/08/01 09:41:07;;;;;;;0.00;0.00;;;18.90;69.60;;;;;;5024971;28;20120;-72
2022/08/01 09:43:33;;;;;;;0.00;0.00;;;18.90;71.60;;;;;;5028834;28;20056;-71
2022/08/01 09:46:04;;;;;;;0.00;0.00;;;19.00;71.10;;;;;;5009386;28;20136;-71
2022/08/01 09:48:31;;;;;;;0.00;0.00;;;19.00;68.40;;;;;;5033503;28;20048;-71
2022/08/01 09:50:59;;;;;;;2.17;0.47;;;18.90;67.40;;;;;;5026503;28;20049;-72
2022/08/01 09:53:25;;;;;;;0.30;0.30;;;19.00;69.10;;;;;;5028677;28;20045;-71
2022/08/01 09:55:52;;;;;;;0.00;0.00;;;19.10;70.30;;;;;;5026399;28;20048;-70
2022/08/01 09:58:19;;;;;;;0.00;0.00;;;19.10;70.10;;;;;;5010368;28;20038;-70
2022/08/01 10:01:03;;;;;;;0.00;0.00;;;19.10;70.00;;;;;;5028806;28;20057;-70
2022/08/01 10:03:29;;;;;;;0.00;0.00;;;19.10;69.60;;;;;;5016283;28;20050;-71
2022/08/01 10:05:56;;;;;;;0.00;0.00;;;19.00;63.50;;;;;;5025231;28;20049;-71
2022/08/01 10:08:24;;;;;;;0.00;0.00;;;19.00;65.00;;;;;;5027890;28;20053;-70
2022/08/01 10:11:10;;;;;;;0.00;0.00;;;19.10;66.60;;;;;;5027199;28;20121;-70
2022/08/01 10:13:38;;;;;;;0.00;0.00;;;19.20;68.00;;;;;;5027725;28;20083;-70
2022/08/01 10:16:05;;;;;;;0.00;0.00;;;19.30;67.40;;;;;;5025067;28;20506;-71
2022/08/01 10:18:33;;;;;;;0.00;0.00;;;19.30;67.90;;;;;;5022617;28;20054;-70
2022/08/01 10:21:00;;;;;;;0.00;0.00;;;19.30;65.60;;;;;;5010780;28;20537;-71
2022/08/01 10:23:27;;;;;;;0.00;0.00;;;19.40;67.00;;;;;;5027380;28;20045;-70
2022/08/01 10:25:54;;;;;;;0.00;0.00;;;19.40;64.70;;;;;;5019959;28;20045;-70
2022/08/01 10:28:22;;;;;;;0.00;0.00;;;19.40;67.20;;;;;;5026166;28;20046;-71
2022/08/01 10:30:48;;;;;;;0.00;0.00;;;19.50;67.40;;;;;;5020297;28;20050;-70
2022/08/01 10:33:15;;;;;;;0.20;0.20;;;19.50;66.20;;;;;;5021449;28;20049;-70
2022/08/01 10:35:41;;;;;;;0.00;0.00;;;19.50;65.90;;;;;;5008528;28;20041;-70
2022/08/01 10:38:07;;;;;;;0.00;0.00;;;19.60;66.00;;;;;;5008810;28;20048;-70
2022/08/01 10:40:33;;;;;;;0.00;0.00;;;19.70;66.10;;;;;;5026798;28;20496;-71
2022/08/01 10:42:59;;;;;;;0.00;0.00;;;19.60;64.90;;;;;;5016238;28;20049;-70
2022/08/01 10:45:26;;;;;;;0.00;0.00;;;19.60;64.30;;;;;;5025914;28;20065;-71
2022/08/01 10:48:10;;;;;;;0.00;0.00;;;19.60;64.10;;;;;;5028392;28;20592;-70
2022/08/01 10:50:43;;;;;;;0.00;0.00;;;19.50;61.80;;;;;;5028014;28;20052;-70
2022/08/01 10:53:20;;;;;;;0.00;0.00;;;19.60;62.50;;;;;;5027969;28;20670;-70
2022/08/01 10:55:47;;;;;;;0.10;0.10;;;19.70;63.70;;;;;;5007242;28;20038;-70
2022/08/01 10:58:13;;;;;;;0.00;0.00;;;19.70;63.10;;;;;;5028286;28;20141;-71
2022/08/01 11:00:38;;;;;;;0.00;0.00;;;19.80;62.70;;;;;;5027746;28;20136;-70
2022/08/01 11:03:04;;;;;;;0.00;0.00;;;19.80;63.80;;;;;;5027470;28;20053;-71
2022/08/01 11:05:35;;;;;;;0.00;0.00;;;19.80;61.50;;;;;;5027276;28;20053;-71
2022/08/01 11:08:09;;;;;;;0.00;0.00;;;19.90;64.10;;;;;;5019525;28;20498;-71
2022/08/01 11:10:38;;;;;;;0.00;0.00;;;19.90;64.50;;;;;;5013423;28;20497;-70
2022/08/01 11:13:07;;;;;;;0.00;0.00;;;19.90;63.20;;;;;;5031563;28;20040;-70
2022/08/01 11:15:34;;;;;;;0.00;0.00;;;20.00;61.70;;;;;;5030911;28;20508;-70
2022/08/01 11:18:01;;;;;;;0.00;0.00;;;20.00;62.80;;;;;;5032082;28;20053;-70
2022/08/01 11:20:33;;;;;;;0.00;0.00;;;20.00;60.00;;;;;;5030751;28;20520;-71
2022/08/01 11:22:59;;;;;;;0.00;0.00;;;20.00;59.10;;;;;;5018019;28;20054;-70
2022/08/01 11:25:25;;;;;;;0.03;0.03;;;20.00;60.90;;;;;;5030112;28;20395;-71
2022/08/01 11:28:16;;;;;;;0.10;0.10;;;20.00;60.70;;;;;;5031120;28;20041;-70
2022/08/01 11:31:04;;;;;;;0.00;0.00;;;20.10;60.60;;;;;;4999649;28;20053;-70
2022/08/01 11:33:42;;;;;;;0.00;0.00;;;20.10;60.60;;;;;;5030859;28;20175;-70
2022/08/01 11:36:11;;;;;;;0.00;0.00;;;20.10;61.10;;;;;;5029117;28;20471;-70
2022/08/01 11:38:41;;;;;;;0.00;0.00;;;20.10;60.80;;;;;;5019503;28;20038;-70
2022/08/01 11:41:13;;;;;;;0.00;0.00;;;20.00;59.50;;;;;;5030327;28;20042;-70
2022/08/01 11:43:58;;;;;;;0.00;0.00;;;20.00;61.20;;;;;;5012398;28;20057;-71
2022/08/01 11:47:06;;;;;;;0.00;0.00;;;19.90;59.50;;;;;;5025262;28;20451;-75
2022/08/01 11:49:44;;;;;;;0.00;0.00;;;20.00;58.80;;;;;;5029367;28;20133;-70
2022/08/01 11:52:23;;;;;;;0.00;0.00;;;20.00;59.40;;;;;;5031851;28;20057;-68
2022/08/01 11:54:54;;;;;;;0.00;0.00;;;20.10;59.60;;;;;;5013608;28;20052;-70
2022/08/01 11:57:26;;;;;;;0.20;0.20;;;20.10;59.80;;;;;;5031293;28;20787;-70
2022/08/01 11:59:56;;;;;;;;;;;20.20;56.70;;;;;;5023845;28;20597;-68
2022/08/01 12:02:30;;;;;;;0.00;0.00;;;20.30;60.30;;;;;;5030751;28;19921;-71
2022/08/01 12:05:00;;;;;;;0.00;0.00;;;20.30;59.00;;;;;;5030342;28;20049;-70
2022/08/01 12:07:28;;;;;;;0.00;0.00;;;20.40;59.10;;;;;;5030347;28;20045;-70
2022/08/01 12:10:14;;;;;;;0.00;0.00;;;20.30;55.60;;;;;;5030441;28;20038;-69
2022/08/01 12:12:48;;;;;;;0.00;0.00;;;20.40;58.50;;;;;;5021276;28;20061;-69
2022/08/01 12:15:14;;;;;;;0.00;0.00;;;20.40;56.60;;;;;;5030442;28;20054;-70
2022/08/01 12:17:46;;;;;;;0.00;0.00;;;20.50;59.60;;;;;;5030977;28;20091;-69
2022/08/01 12:20:19;;;;;;;0.00;0.00;;;20.60;60.50;;;;;;5045980;28;20060;-71
2022/08/01 12:22:44;;;;;;;0.00;0.00;;;20.60;60.10;;;;;;5031315;28;20068;-70
2022/08/01 12:25:13;;;;;;;0.00;0.00;;;20.60;60.50;;;;;;5038774;28;20483;-70
2022/08/01 12:27:41;;;;;;;0.00;0.00;;;20.60;57.50;;;;;;5031843;28;20049;-70
2022/08/01 12:30:09;;;;;;;0.00;0.00;;;20.70;56.00;;;;;;5031314;28;20041;-71
2022/08/01 12:32:37;;;;;;;0.00;0.00;;;20.70;58.40;;;;;;5031358;28;20109;-71
2022/08/01 12:35:05;;;;;;;0.00;0.00;;;20.60;55.50;;;;;;5031349;28;20052;-70
2022/08/01 12:37:35;;;;;;;0.00;0.00;;;20.60;57.10;;;;;;5030271;28;20053;-70
2022/08/01 12:40:01;;;;;;;0.00;0.00;;;20.70;59.90;;;;;;5031215;28;20054;-70
2022/08/01 12:42:27;;;;;;;0.38;0.38;;;20.70;54.90;;;;;;5030701;28;20506;-70
2022/08/01 12:44:54;;;;;;;0.00;0.00;;;20.70;57.00;;;;;;5012645;28;20123;-71
2022/08/01 12:47:20;;;;;;;0.00;0.00;;;20.70;57.70;;;;;;5029660;28;20057;-71
2022/08/01 12:49:47;;;;;;;0.00;0.00;;;20.80;56.10;;;;;;5026822;28;20052;-71
2022/08/01 12:52:14;;;;;;;0.00;0.00;;;20.80;54.60;;;;;;5030361;28;20048;-71
2022/08/01 12:55:08;;;;;;;0.00;0.00;;;21.00;56.50;;;;;;5012601;28;20064;-71